Kezdőlap
METAR-TAF:

METAR-TAF

Repülőterek :

Elefthériosz Venizélosz nemzetközi repülőtér

Athén, Görögország

földrajzi szélesség: 37-56N, földrajzi hosszúság: 023-56E, magasság: 94 m

Jelenlegi meteorológiai megfigyelések

A jelentés 16 perccel ezelõtt készült, 18:20 UTC
Északi szél 4 kt
Hőmérséklet 18°C
Páratartalom 64%
Légköri nyomás 1017 hPa
Látótávolság 10 km, vagy több
Kevés felhő 3000 lábon

METAR: LGAV 171820Z 01004KT 9999 FEW030 18/11 Q1017 NOSIG

Idő: 21:36 (18:36 UTC)

Előrejelzés

A jelentés 1 órával és 36 perccel ezelõtt készült, 17:00 UTC
Az előrejelzés 17-én 18 óra UTC és 18-én 18 óra UTC között érvényes
Északkeleti szél 14 kt
Látótávolság 10 km, vagy több
Kevés felhő 3000 lábon
18-én 07 óra UTC és 18-én 09 óra UTC között fokozatosan kialakuló
Szórványos felhőzet 2000 lábon

TAF: LGAV 171700Z 1718/1818 04014KT 9999 FEW030 BECMG 1807/1809 SCT020

Meteorológiai megfigyelések és előrejelzések több, mint 4000 repülőtéren (METAR és TAF jelentéseket).

A térképen piros és sárga pontok jelzik az elérhető meteorológiai állomásokat.

Mozgassa az egeret a pont fölött, hogy megjelenjen az állomás neve.

Azután kattintson az időjárási megfigyelések és előrejelzések megtekintéséhez.

A térkép megváltoztatása: kattintson a fekete keresztel jelölt zöld gombra ráközelítéshez, a vonallal jelölt zöld gombra távolításhoz, vagy a zöld nyilakra a szomszédos térképek eléréséhez.


METAR-TAF: